createdAt,value
2018-09-21T00:01:34.069Z,22.78
2018-09-21T00:04:13.790Z,22.70
2018-09-21T00:06:43.323Z,22.69
2018-09-21T00:09:13.511Z,22.66
2018-09-21T00:11:43.022Z,22.66
2018-09-21T00:14:12.544Z,22.65
2018-09-21T00:16:42.297Z,22.60
2018-09-21T00:19:11.870Z,22.50
2018-09-21T00:21:41.386Z,22.55
2018-09-21T00:24:10.891Z,22.54
2018-09-21T00:26:40.438Z,22.57
2018-09-21T00:29:09.980Z,22.59
2018-09-21T00:31:39.499Z,22.57
2018-09-21T00:34:09.141Z,22.60
2018-09-21T00:36:38.950Z,22.58
2018-09-21T00:39:10.329Z,22.60
2018-09-21T00:41:40.045Z,22.60
2018-09-21T00:44:09.584Z,22.59
2018-09-21T00:46:39.415Z,22.54
2018-09-21T00:49:08.963Z,22.55
2018-09-21T00:51:38.529Z,22.52
2018-09-21T00:54:08.448Z,22.53
2018-09-21T00:56:38.399Z,22.55
2018-09-21T00:59:07.941Z,22.55
2018-09-21T01:01:37.600Z,22.53
2018-09-21T01:04:07.479Z,22.54
2018-09-21T01:06:37.009Z,22.57
2018-09-21T01:09:10.135Z,22.58
2018-09-21T01:11:39.949Z,22.58
2018-09-21T01:14:09.637Z,22.60
2018-09-21T01:16:39.185Z,22.59
2018-09-21T01:19:08.696Z,22.63
2018-09-21T01:21:38.219Z,22.58
2018-09-21T01:24:08.085Z,22.61
2018-09-21T01:26:37.622Z,22.63
2018-09-21T01:29:07.188Z,22.57
2018-09-21T01:31:36.703Z,22.60
2018-09-21T01:34:06.377Z,22.66
2018-09-21T01:36:35.942Z,22.60
2018-09-21T01:39:08.050Z,22.62
2018-09-21T01:41:38.668Z,22.66
2018-09-21T01:44:09.099Z,22.68
2018-09-21T01:46:38.955Z,22.71
2018-09-21T01:49:08.865Z,22.68
2018-09-21T01:51:38.379Z,22.70
2018-09-21T01:54:07.898Z,22.64
2018-09-21T01:56:37.458Z,22.62
2018-09-21T01:59:07.149Z,22.60
2018-09-21T02:01:36.755Z,22.70
2018-09-21T02:04:06.287Z,22.69
2018-09-21T02:06:35.817Z,22.69
2018-09-21T02:09:07.628Z,22.67
2018-09-21T02:11:37.233Z,22.66
2018-09-21T02:14:06.778Z,22.66
2018-09-21T02:16:36.616Z,22.64
2018-09-21T02:19:06.139Z,22.62
2018-09-21T02:21:35.667Z,22.63
2018-09-21T02:24:05.219Z,22.64
2018-09-21T02:26:34.712Z,22.66
2018-09-21T02:29:04.257Z,22.66
2018-09-21T02:31:33.864Z,22.55
2018-09-21T02:34:03.784Z,22.54
2018-09-21T02:36:33.303Z,22.59
2018-09-21T02:39:06.277Z,22.55
2018-09-21T02:41:36.083Z,22.49
2018-09-21T02:44:05.856Z,22.54
2018-09-21T02:46:35.652Z,22.54
2018-09-21T02:49:05.411Z,22.57
2018-09-21T02:51:35.209Z,22.53
2018-09-21T02:54:04.760Z,22.54
2018-09-21T02:56:34.738Z,22.51
2018-09-21T02:59:04.352Z,22.55
2018-09-21T03:01:33.909Z,22.53
2018-09-21T03:04:03.412Z,22.54
2018-09-21T03:06:32.919Z,22.54
2018-09-21T03:09:02.440Z,22.52
2018-09-21T03:11:32.006Z,22.54
2018-09-21T03:14:01.549Z,22.56
2018-09-21T03:16:31.080Z,22.50
2018-09-21T03:19:00.657Z,22.54
2018-09-21T03:21:30.164Z,22.54
2018-09-21T03:23:59.694Z,22.56
2018-09-21T03:26:29.220Z,22.54
2018-09-21T03:28:59.599Z,22.57
2018-09-21T03:31:29.106Z,22.55
2018-09-21T03:33:58.616Z,22.57
2018-09-21T03:36:28.159Z,22.57
2018-09-21T03:38:57.674Z,22.57
2018-09-21T03:41:27.204Z,22.51
2018-09-21T03:43:56.677Z,22.51
2018-09-21T03:46:26.145Z,22.43
2018-09-21T03:48:55.669Z,22.47
2018-09-21T03:51:25.226Z,22.51
2018-09-21T03:53:54.877Z,22.47
2018-09-21T03:56:24.353Z,22.45
2018-09-21T03:58:53.920Z,22.46
2018-09-21T04:01:23.448Z,22.47
2018-09-21T04:03:53.056Z,22.46
2018-09-21T04:06:22.546Z,22.45
2018-09-21T04:08:52.200Z,22.47
2018-09-21T04:11:21.735Z,22.48
2018-09-21T04:13:51.291Z,22.42
2018-09-21T04:16:20.821Z,22.43
2018-09-21T04:18:50.393Z,22.46
2018-09-21T04:21:20.013Z,22.53
2018-09-21T04:23:49.599Z,22.49
2018-09-21T04:26:19.282Z,22.51
2018-09-21T04:28:49.482Z,22.57
2018-09-21T04:31:19.046Z,22.62
2018-09-21T04:33:48.534Z,22.52
2018-09-21T04:36:18.037Z,22.60
2018-09-21T04:38:47.544Z,22.62
2018-09-21T04:41:17.040Z,22.58
2018-09-21T04:43:46.533Z,22.70
2018-09-21T04:46:16.413Z,22.73
2018-09-21T04:48:46.133Z,22.73
2018-09-21T04:51:15.634Z,22.81
2018-09-21T04:53:45.503Z,22.77
2018-09-21T04:56:14.995Z,22.76
2018-09-21T04:58:44.963Z,22.81
2018-09-21T05:01:14.490Z,22.81
2018-09-21T05:03:44.029Z,22.82
2018-09-21T05:06:13.639Z,22.84
2018-09-21T05:08:43.297Z,22.84
2018-09-21T05:11:12.858Z,22.84
2018-09-21T05:13:42.942Z,22.86
2018-09-21T05:16:12.833Z,22.82
2018-09-21T05:18:42.413Z,22.86
2018-09-21T05:21:12.009Z,22.88
2018-09-21T05:23:41.540Z,22.87
2018-09-21T05:26:11.095Z,22.90
2018-09-21T05:28:40.621Z,22.93
2018-09-21T05:31:10.189Z,22.94
2018-09-21T05:33:39.690Z,22.94
2018-09-21T05:36:09.225Z,22.97
2018-09-21T05:38:38.781Z,22.96
2018-09-21T05:41:08.925Z,22.94
2018-09-21T05:43:38.471Z,23.03
2018-09-21T05:46:08.030Z,22.99
2018-09-21T05:48:37.933Z,22.94
2018-09-21T05:51:08.042Z,23.02
2018-09-21T05:53:37.543Z,22.99
2018-09-21T05:56:08.086Z,23.00
2018-09-21T05:58:37.752Z,23.03
2018-09-21T06:01:07.358Z,23.06
2018-09-21T06:03:36.972Z,22.99
2018-09-21T06:06:06.771Z,22.99
2018-09-21T06:08:36.388Z,23.01
2018-09-21T06:11:05.934Z,23.01
2018-09-21T06:13:35.491Z,23.01
2018-09-21T06:16:05.242Z,22.96
2018-09-21T06:18:34.817Z,22.92
2018-09-21T06:21:04.379Z,22.87
2018-09-21T06:23:34.146Z,22.92
2018-09-21T06:26:03.771Z,22.89
2018-09-21T06:28:33.338Z,22.92
2018-09-21T06:31:02.898Z,23.00
2018-09-21T06:33:32.767Z,22.90
2018-09-21T06:36:02.335Z,22.93
2018-09-21T06:38:31.882Z,22.90
2018-09-21T06:41:01.611Z,22.93
2018-09-21T06:43:31.339Z,22.92
2018-09-21T06:46:01.139Z,22.94
2018-09-21T06:48:31.540Z,23.01
2018-09-21T06:51:01.068Z,23.06
2018-09-21T06:53:30.622Z,23.02
2018-09-21T06:56:00.480Z,23.08
2018-09-21T06:58:30.032Z,23.00
2018-09-21T07:00:59.597Z,22.99
2018-09-21T07:03:29.255Z,23.08
2018-09-21T07:05:58.861Z,23.04
2018-09-21T07:08:28.394Z,23.07
2018-09-21T07:10:58.116Z,23.07
2018-09-21T07:13:27.589Z,23.05
2018-09-21T07:15:57.412Z,23.01
2018-09-21T07:18:27.078Z,23.00
2018-09-21T07:20:57.607Z,22.96
2018-09-21T07:23:27.113Z,22.95
2018-09-21T07:25:56.668Z,22.99
2018-09-21T07:28:26.257Z,22.93
2018-09-21T07:30:55.955Z,23.02
2018-09-21T07:33:26.155Z,23.05
2018-09-21T07:35:56.694Z,22.95
2018-09-21T07:38:26.245Z,22.99
2018-09-21T07:40:55.745Z,22.97
2018-09-21T07:43:25.266Z,23.03
2018-09-21T07:45:54.752Z,22.99
2018-09-21T07:48:24.298Z,23.06
2018-09-21T07:50:53.831Z,22.98
2018-09-21T07:53:23.344Z,22.95
2018-09-21T07:55:52.985Z,22.95
2018-09-21T07:58:22.535Z,23.00
2018-09-21T08:00:52.055Z,22.94
2018-09-21T08:03:21.531Z,22.91
2018-09-21T08:05:51.049Z,22.93
2018-09-21T08:08:20.532Z,22.93
2018-09-21T08:10:50.099Z,22.91
2018-09-21T08:13:19.618Z,22.90
2018-09-21T08:15:49.173Z,22.91
2018-09-21T08:18:19.393Z,22.87
2018-09-21T08:20:48.907Z,22.69
2018-09-21T08:23:18.415Z,22.67
2018-09-21T08:25:47.963Z,22.73
2018-09-21T08:28:17.485Z,22.70
2018-09-21T08:30:46.987Z,22.70
2018-09-21T08:33:16.536Z,22.61
2018-09-21T08:35:46.294Z,22.61
2018-09-21T08:38:15.778Z,22.63
2018-09-21T08:40:45.276Z,22.67
2018-09-21T08:43:14.820Z,22.59
2018-09-21T08:45:44.689Z,22.70
2018-09-21T08:48:14.213Z,22.69
2018-09-21T08:50:43.764Z,22.69
2018-09-21T08:53:13.336Z,22.62
2018-09-21T08:55:42.878Z,22.46
2018-09-21T08:58:12.468Z,22.41
2018-09-21T09:00:42.058Z,22.34
2018-09-21T09:03:11.720Z,22.27
2018-09-21T09:05:41.385Z,22.02
2018-09-21T09:08:10.964Z,21.80
2018-09-21T09:10:40.496Z,21.56
2018-09-21T09:13:10.174Z,21.03
2018-09-21T09:15:39.716Z,20.73
2018-09-21T09:18:09.209Z,20.41
2018-09-21T09:20:38.743Z,19.98
2018-09-21T09:23:08.787Z,19.70
2018-09-21T09:25:38.284Z,19.02
2018-09-21T09:28:08.198Z,17.86
2018-09-21T09:30:37.713Z,17.00
2018-09-21T09:33:07.546Z,16.91
2018-09-21T09:35:37.053Z,16.55
2018-09-21T09:38:07.265Z,16.54
2018-09-21T09:40:36.815Z,16.39
2018-09-21T09:43:06.319Z,16.20
2018-09-21T09:45:36.046Z,16.09
2018-09-21T09:48:05.552Z,15.90
2018-09-21T09:50:35.072Z,15.69
2018-09-21T09:53:04.614Z,15.95
2018-09-21T09:55:34.159Z,15.74
2018-09-21T09:58:03.679Z,15.87
2018-09-21T10:00:36.147Z,15.81
2018-09-21T10:03:05.618Z,15.79
2018-09-21T10:05:35.183Z,15.92
2018-09-21T10:08:04.675Z,15.85
2018-09-21T10:10:34.457Z,15.71
2018-09-21T10:13:03.947Z,15.56
2018-09-21T10:15:33.514Z,15.48
2018-09-21T10:18:03.298Z,15.58
2018-09-21T10:20:32.822Z,15.66
2018-09-21T10:23:02.774Z,15.50
2018-09-21T10:25:33.261Z,15.46
2018-09-21T10:28:03.234Z,15.44
2018-09-21T10:30:33.127Z,15.48
2018-09-21T10:33:02.855Z,15.46
2018-09-21T10:35:32.544Z,15.46
2018-09-21T10:38:02.151Z,15.27
2018-09-21T10:40:31.652Z,15.30
2018-09-21T10:43:01.789Z,15.26
2018-09-21T10:45:31.449Z,15.31
2018-09-21T10:48:01.030Z,15.39
2018-09-21T10:50:30.543Z,15.48
2018-09-21T10:53:00.104Z,15.40
2018-09-21T10:55:29.731Z,15.47
2018-09-21T10:57:59.283Z,15.49
2018-09-21T11:00:28.866Z,15.47
2018-09-21T11:02:58.513Z,15.48
2018-09-21T11:05:28.050Z,15.56
2018-09-21T11:07:57.554Z,15.62
2018-09-21T11:10:27.106Z,15.60
2018-09-21T11:12:56.639Z,15.62
2018-09-21T11:15:26.415Z,15.63
2018-09-21T11:17:55.942Z,15.76
2018-09-21T11:20:25.463Z,15.71
2018-09-21T11:22:54.989Z,15.67
2018-09-21T11:25:24.525Z,15.70
2018-09-21T11:27:54.083Z,15.71
2018-09-21T11:30:23.608Z,15.80
2018-09-21T11:32:53.231Z,15.82
2018-09-21T11:35:22.967Z,15.90
2018-09-21T11:37:52.556Z,15.92
2018-09-21T11:40:22.092Z,16.05
2018-09-21T11:42:51.587Z,16.17
2018-09-21T11:45:21.101Z,16.17
2018-09-21T11:47:50.708Z,16.23
2018-09-21T11:50:20.422Z,16.21
2018-09-21T11:52:49.897Z,16.09
2018-09-21T11:55:19.448Z,16.15
2018-09-21T11:57:48.958Z,16.19
2018-09-21T12:00:18.490Z,16.24
2018-09-21T12:02:47.999Z,16.31
2018-09-21T12:05:17.555Z,16.35
2018-09-21T12:07:47.273Z,16.38
2018-09-21T12:10:17.128Z,16.46
2018-09-21T12:12:46.703Z,16.41
2018-09-21T12:15:16.694Z,16.47
2018-09-21T12:17:46.257Z,16.46
2018-09-21T12:20:15.795Z,16.55
2018-09-21T12:22:45.367Z,16.45
2018-09-21T12:25:15.217Z,16.56
2018-09-21T12:27:44.798Z,16.61
2018-09-21T12:30:14.428Z,16.61
2018-09-21T12:32:44.313Z,16.54
2018-09-21T12:35:13.879Z,16.61
2018-09-21T12:37:43.442Z,16.63
2018-09-21T12:40:13.285Z,16.63
2018-09-21T12:42:42.838Z,16.68
2018-09-21T12:45:12.504Z,16.73
2018-09-21T12:47:42.052Z,16.78
2018-09-21T12:50:11.632Z,16.90
2018-09-21T12:52:41.365Z,16.90
2018-09-21T12:55:10.930Z,16.85
2018-09-21T12:57:40.556Z,16.84
2018-09-21T13:00:11.287Z,16.88
2018-09-21T13:02:41.521Z,16.78
2018-09-21T13:05:11.252Z,16.85
2018-09-21T13:07:40.805Z,16.92
2018-09-21T13:10:10.794Z,16.82
2018-09-21T13:12:40.404Z,16.84
2018-09-21T13:15:10.343Z,16.82
2018-09-21T13:17:39.852Z,16.93
2018-09-21T13:20:09.746Z,16.98
2018-09-21T13:22:39.269Z,17.09
2018-09-21T13:25:09.175Z,17.09
2018-09-21T13:27:38.717Z,17.04
2018-09-21T13:30:08.327Z,17.12
2018-09-21T13:32:37.878Z,17.12
2018-09-21T13:35:07.494Z,17.11
2018-09-21T13:37:37.071Z,17.16
2018-09-21T13:40:06.616Z,17.18
2018-09-21T13:42:36.121Z,17.19
2018-09-21T13:45:06.006Z,17.15
2018-09-21T13:47:35.552Z,17.19
2018-09-21T13:50:05.436Z,17.21
2018-09-21T13:52:35.023Z,17.19
2018-09-21T13:55:04.952Z,17.22
2018-09-21T13:57:34.464Z,17.17
2018-09-21T14:00:04.296Z,17.29
2018-09-21T14:02:33.861Z,17.31
2018-09-21T14:05:03.584Z,17.29
2018-09-21T14:07:33.146Z,17.31
2018-09-21T14:10:03.815Z,17.21
2018-09-21T14:12:33.461Z,17.26
2018-09-21T14:15:03.053Z,17.24
2018-09-21T14:17:32.591Z,17.31
2018-09-21T14:20:02.235Z,17.28
2018-09-21T14:22:31.786Z,17.33
2018-09-21T14:25:01.479Z,17.30
2018-09-21T14:27:31.164Z,17.22
2018-09-21T14:30:00.697Z,17.19
2018-09-21T14:32:30.251Z,17.09
2018-09-21T14:34:59.856Z,17.16
2018-09-21T14:37:29.394Z,17.08
2018-09-21T14:39:58.907Z,17.15
2018-09-21T14:42:29.682Z,17.09
2018-09-21T14:44:59.618Z,17.09
2018-09-21T14:47:29.149Z,17.08
2018-09-21T14:49:58.652Z,17.16
2018-09-21T14:52:28.223Z,17.18
2018-09-21T14:54:57.816Z,17.19
2018-09-21T14:57:27.341Z,17.14
2018-09-21T14:59:57.057Z,17.14
2018-09-21T15:02:26.771Z,17.17
2018-09-21T15:04:56.283Z,17.32
2018-09-21T15:07:25.820Z,17.37
2018-09-21T15:09:55.717Z,17.39
2018-09-21T15:12:25.443Z,17.31
2018-09-21T15:14:55.074Z,17.28
2018-09-21T15:17:24.623Z,17.32
2018-09-21T15:19:54.312Z,17.34
2018-09-21T15:22:23.833Z,17.39
2018-09-21T15:24:53.849Z,17.36
2018-09-21T15:27:23.353Z,17.44
2018-09-21T15:29:52.927Z,17.46
2018-09-21T15:32:22.482Z,17.50
2018-09-21T15:34:53.214Z,17.50
2018-09-21T15:37:22.755Z,17.55
2018-09-21T15:39:52.216Z,17.64
2018-09-21T15:42:21.725Z,17.61
2018-09-21T15:44:51.328Z,17.52
2018-09-21T15:47:20.845Z,17.46
2018-09-21T15:49:50.384Z,17.38
2018-09-21T15:52:19.913Z,17.40
2018-09-21T15:54:49.594Z,17.35
2018-09-21T15:57:19.109Z,17.41
2018-09-21T15:59:49.041Z,17.50
2018-09-21T16:02:18.542Z,17.51
2018-09-21T16:04:48.057Z,17.51
2018-09-21T16:07:17.537Z,17.36
2018-09-21T16:09:47.194Z,17.29
2018-09-21T16:12:17.181Z,17.16
2018-09-21T16:14:46.706Z,17.09
2018-09-21T16:17:16.260Z,17.09
2018-09-21T16:19:45.804Z,17.06
2018-09-21T16:22:15.337Z,17.08
2018-09-21T16:24:44.878Z,17.04
2018-09-21T16:27:14.461Z,17.04
2018-09-21T16:29:43.989Z,16.96
2018-09-21T16:32:13.509Z,16.99
2018-09-21T16:34:43.417Z,17.01
2018-09-21T16:37:12.925Z,17.02
2018-09-21T16:39:42.502Z,17.00
2018-09-21T16:42:12.038Z,17.00
2018-09-21T16:44:41.675Z,17.13
2018-09-21T16:47:11.327Z,17.05
2018-09-21T16:49:40.868Z,17.13
2018-09-21T16:52:10.598Z,17.02
2018-09-21T16:54:40.130Z,17.00
2018-09-21T16:57:09.668Z,16.97
2018-09-21T16:59:39.537Z,16.98
2018-09-21T17:02:09.086Z,16.90
2018-09-21T17:04:38.904Z,16.87
2018-09-21T17:07:08.607Z,16.88
2018-09-21T17:09:38.187Z,16.92
2018-09-21T17:12:07.973Z,16.84
2018-09-21T17:14:37.559Z,16.80
2018-09-21T17:17:07.501Z,16.76
2018-09-21T17:19:37.017Z,16.66
2018-09-21T17:22:06.942Z,16.64
2018-09-21T17:24:36.545Z,16.65
2018-09-21T17:27:06.432Z,16.66
2018-09-21T17:29:35.932Z,16.66
2018-09-21T17:32:05.538Z,16.69
2018-09-21T17:34:35.292Z,16.65
2018-09-21T17:37:05.299Z,16.61
2018-09-21T17:39:34.917Z,16.55
2018-09-21T17:42:04.776Z,16.46
2018-09-21T17:44:34.325Z,16.46
2018-09-21T17:47:03.888Z,16.39
2018-09-21T17:49:33.651Z,16.39
2018-09-21T17:52:03.146Z,16.38
2018-09-21T17:54:32.669Z,16.38
2018-09-21T17:57:02.220Z,16.42
2018-09-21T17:59:31.725Z,16.42
2018-09-21T18:02:01.350Z,16.34
2018-09-21T18:04:31.004Z,16.30
2018-09-21T18:07:00.532Z,16.18
2018-09-21T18:09:30.061Z,16.25
2018-09-21T18:11:59.763Z,16.25
2018-09-21T18:14:29.465Z,16.19
2018-09-21T18:16:59.035Z,16.24
2018-09-21T18:19:28.590Z,16.25
2018-09-21T18:21:58.090Z,16.27
2018-09-21T18:24:27.653Z,16.26
2018-09-21T18:26:57.331Z,16.18
2018-09-21T18:29:26.846Z,16.20
2018-09-21T18:31:56.351Z,16.16
2018-09-21T18:34:26.116Z,16.16
2018-09-21T18:36:55.699Z,16.09
2018-09-21T18:39:25.294Z,16.10
2018-09-21T18:41:54.822Z,16.11
2018-09-21T18:44:24.559Z,16.05
2018-09-21T18:46:54.097Z,16.04
2018-09-21T18:49:23.653Z,16.07
2018-09-21T18:51:53.402Z,16.09
2018-09-21T18:54:23.001Z,15.99
2018-09-21T18:56:52.551Z,15.98
2018-09-21T18:59:22.129Z,15.86
2018-09-21T19:01:51.657Z,15.84
2018-09-21T19:04:21.225Z,15.80
2018-09-21T19:06:52.052Z,15.73
2018-09-21T19:09:21.608Z,15.78
2018-09-21T19:11:51.120Z,15.77
2018-09-21T19:14:21.438Z,15.77
2018-09-21T19:16:50.979Z,15.78
2018-09-21T19:19:20.513Z,15.78
2018-09-21T19:21:49.990Z,15.80
2018-09-21T19:24:19.510Z,15.81
2018-09-21T19:26:49.029Z,15.82
2018-09-21T19:29:18.531Z,15.88
2018-09-21T19:31:48.034Z,15.91
2018-09-21T19:34:17.570Z,15.81
2018-09-21T19:36:47.324Z,15.81
2018-09-21T19:39:16.862Z,15.84
2018-09-21T19:41:46.383Z,15.84
2018-09-21T19:44:15.978Z,15.79
2018-09-21T19:46:45.575Z,15.71
2018-09-21T19:49:15.244Z,15.77
2018-09-21T19:51:44.779Z,15.77
2018-09-21T19:54:14.418Z,15.71
2018-09-21T19:56:44.012Z,15.79
2018-09-21T19:59:13.528Z,15.71
2018-09-21T20:01:43.045Z,15.71
2018-09-21T20:04:12.884Z,15.76
2018-09-21T20:06:42.397Z,15.82
2018-09-21T20:09:12.825Z,15.81
2018-09-21T20:11:46.463Z,15.73
2018-09-21T20:14:16.008Z,15.74
2018-09-21T20:16:45.555Z,15.72
2018-09-21T20:19:15.426Z,15.66
2018-09-21T20:21:45.043Z,15.74
2018-09-21T20:24:14.562Z,15.74
2018-09-21T20:26:44.105Z,15.69
2018-09-21T20:29:13.584Z,15.68
2018-09-21T20:34:21.712Z,15.71
2018-09-21T20:36:51.259Z,15.62
2018-09-21T20:39:20.771Z,15.58
2018-09-21T20:41:50.273Z,15.56
2018-09-21T20:44:20.197Z,15.57
2018-09-21T20:46:49.763Z,15.55
2018-09-21T20:49:19.305Z,15.58
2018-09-21T20:51:49.124Z,15.52
2018-09-21T20:54:18.862Z,15.55
2018-09-21T20:56:48.432Z,15.49
2018-09-21T20:59:18.084Z,15.46
2018-09-21T21:01:47.823Z,15.46
2018-09-21T21:04:17.350Z,15.48
2018-09-21T21:06:46.873Z,15.42
2018-09-21T21:09:16.367Z,15.49
2018-09-21T21:11:46.202Z,15.51
2018-09-21T21:14:15.727Z,15.44
2018-09-21T21:16:45.262Z,15.44
2018-09-21T21:19:14.963Z,15.39
2018-09-21T21:21:44.531Z,15.47
2018-09-21T21:24:14.021Z,15.48
2018-09-21T21:26:43.599Z,15.36
2018-09-21T21:29:13.154Z,15.34
2018-09-21T21:31:42.702Z,15.28
2018-09-21T21:34:12.572Z,15.35
2018-09-21T21:36:42.165Z,15.37
2018-09-21T21:39:11.685Z,15.32
2018-09-21T21:41:41.173Z,15.25
2018-09-21T21:44:10.681Z,15.19
2018-09-21T21:46:40.185Z,15.26
2018-09-21T21:49:09.718Z,15.25
2018-09-21T21:51:39.853Z,15.19
2018-09-21T21:54:09.353Z,15.14
2018-09-21T21:56:38.894Z,15.16
2018-09-21T21:59:08.391Z,15.20
2018-09-21T22:01:43.268Z,15.13
2018-09-21T22:04:12.833Z,15.16
2018-09-21T22:06:42.379Z,15.18
2018-09-21T22:09:12.485Z,15.14
2018-09-21T22:11:47.176Z,15.07
2018-09-21T22:14:16.826Z,15.08
2018-09-21T22:16:46.319Z,15.06
2018-09-21T22:19:16.058Z,14.99
2018-09-21T22:21:45.906Z,15.00
2018-09-21T22:24:16.410Z,14.94
2018-09-21T22:26:45.984Z,14.99
2018-09-21T22:29:15.464Z,14.88
2018-09-21T22:31:45.006Z,14.91
2018-09-21T22:34:14.481Z,14.96
2018-09-21T22:36:43.986Z,15.01
2018-09-21T22:39:13.491Z,14.89
2018-09-21T22:41:43.262Z,14.82
2018-09-21T22:44:12.808Z,14.87
2018-09-21T22:46:42.318Z,14.83
2018-09-21T22:49:17.052Z,14.89
2018-09-21T22:51:46.563Z,14.93
2018-09-21T22:54:16.369Z,14.97
2018-09-21T22:56:45.933Z,14.87
2018-09-21T22:59:15.457Z,14.80
2018-09-21T23:01:45.337Z,14.86
2018-09-21T23:04:15.290Z,14.76
2018-09-21T23:06:45.165Z,14.46
2018-09-21T23:09:14.646Z,14.09
2018-09-21T23:11:44.169Z,13.89
2018-09-21T23:14:13.626Z,13.75
2018-09-21T23:16:43.233Z,13.51
2018-09-21T23:19:13.118Z,13.32
2018-09-21T23:21:42.731Z,13.11
2018-09-21T23:24:12.279Z,13.10
2018-09-21T23:26:41.809Z,13.20
2018-09-21T23:29:11.671Z,13.30
2018-09-21T23:31:41.364Z,13.34
2018-09-21T23:34:11.073Z,13.28
2018-09-21T23:36:40.564Z,13.13
2018-09-21T23:39:11.053Z,13.10
2018-09-21T23:41:40.649Z,13.16
2018-09-21T23:44:10.685Z,13.23
2018-09-21T23:46:40.222Z,13.02
2018-09-21T23:49:09.709Z,12.93
2018-09-21T23:51:39.185Z,13.00
2018-09-21T23:54:08.682Z,13.02
2018-09-21T23:56:38.177Z,13.12
2018-09-21T23:59:08.038Z,13.23
